createdAt,value
2018-11-29T00:00:31.715Z,9.00
2018-11-29T00:03:00.170Z,9.00
2018-11-29T00:05:28.624Z,9.10
2018-11-29T00:07:57.447Z,9.20
2018-11-29T00:10:25.943Z,9.30
2018-11-29T00:12:54.380Z,9.40
2018-11-29T00:15:22.842Z,9.50
2018-11-29T00:17:51.246Z,9.50
2018-11-29T00:20:20.371Z,9.80
2018-11-29T00:22:50.133Z,9.80
2018-11-29T00:25:19.379Z,9.90
2018-11-29T00:27:48.144Z,10.00
2018-11-29T00:30:22.053Z,10.00
2018-11-29T00:32:51.331Z,10.00
2018-11-29T00:35:19.789Z,9.90
2018-11-29T00:37:48.307Z,9.70
2018-11-29T00:40:19.207Z,9.90
2018-11-29T00:42:47.676Z,9.90
2018-11-29T00:45:18.108Z,10.00
2018-11-29T00:47:47.243Z,9.80
2018-11-29T00:50:16.490Z,9.80
2018-11-29T00:52:45.920Z,9.80
2018-11-29T00:55:15.870Z,9.90
2018-11-29T00:57:44.310Z,9.80
2018-11-29T01:00:16.800Z,9.70
2018-11-29T01:02:45.235Z,9.70
2018-11-29T01:05:13.680Z,9.60
2018-11-29T01:07:42.102Z,9.60
2018-11-29T01:10:14.627Z,9.70
2018-11-29T01:12:43.603Z,9.80
2018-11-29T01:15:15.029Z,9.70
2018-11-29T01:17:43.987Z,9.70
2018-11-29T01:20:14.107Z,9.70
2018-11-29T01:22:43.206Z,9.70
2018-11-29T01:25:13.460Z,9.80
2018-11-29T01:27:43.406Z,9.80
2018-11-29T01:30:15.885Z,9.70
2018-11-29T01:32:44.521Z,9.90
2018-11-29T01:35:14.198Z,9.90
2018-11-29T01:37:42.631Z,10.00
2018-11-29T01:40:20.426Z,10.00
2018-11-29T01:42:53.264Z,10.00
2018-11-29T01:45:21.771Z,10.00
2018-11-29T01:47:50.261Z,10.00
2018-11-29T01:50:18.731Z,10.10
2018-11-29T01:52:47.179Z,10.20
2018-11-29T01:55:15.624Z,10.10
2018-11-29T01:57:44.102Z,10.00
2018-11-29T02:00:14.589Z,10.00
2018-11-29T02:02:43.391Z,10.00
2018-11-29T02:05:12.222Z,10.00
2018-11-29T02:07:40.687Z,9.90
2018-11-29T02:10:17.426Z,9.80
2018-11-29T02:12:45.864Z,9.70
2018-11-29T02:15:14.329Z,9.80
2018-11-29T02:17:42.878Z,9.70
2018-11-29T02:20:13.207Z,9.60
2018-11-29T02:22:41.651Z,9.60
2018-11-29T02:25:10.084Z,9.50
2018-11-29T02:27:38.508Z,9.40
2018-11-29T02:30:10.641Z,9.50
2018-11-29T02:32:39.076Z,9.40
2018-11-29T02:35:07.820Z,9.40
2018-11-29T02:37:36.263Z,9.40
2018-11-29T02:40:06.095Z,9.50
2018-11-29T02:42:34.585Z,9.30
2018-11-29T02:45:03.789Z,9.30
2018-11-29T02:47:32.249Z,9.30
2018-11-29T02:50:00.652Z,9.20
2018-11-29T02:52:29.066Z,9.00
2018-11-29T02:54:57.503Z,8.90
2018-11-29T02:57:25.904Z,8.70
2018-11-29T02:59:54.321Z,8.60
2018-11-29T03:02:22.740Z,8.70
2018-11-29T03:04:51.173Z,8.90
2018-11-29T03:07:19.601Z,8.70
2018-11-29T03:09:48.060Z,8.60
2018-11-29T03:12:16.459Z,8.60
2018-11-29T03:14:44.910Z,8.80
2018-11-29T03:17:13.341Z,9.20
2018-11-29T03:19:41.803Z,9.40
2018-11-29T03:22:10.240Z,9.50
2018-11-29T03:24:38.680Z,9.60
2018-11-29T03:27:07.419Z,9.60
2018-11-29T03:29:36.497Z,9.60
2018-11-29T03:32:05.030Z,9.70
2018-11-29T03:34:33.465Z,9.60
2018-11-29T03:37:01.949Z,9.70
2018-11-29T03:39:30.382Z,9.50
2018-11-29T03:41:58.832Z,9.60
2018-11-29T03:44:27.300Z,9.60
2018-11-29T03:46:55.731Z,9.60
2018-11-29T03:49:24.147Z,9.60
2018-11-29T03:51:52.607Z,9.60
2018-11-29T03:54:21.080Z,9.60
2018-11-29T03:56:49.515Z,9.70
2018-11-29T03:59:17.978Z,9.60
2018-11-29T04:01:46.429Z,9.60
2018-11-29T04:04:14.856Z,9.60
2018-11-29T04:06:43.309Z,9.60
2018-11-29T04:09:11.733Z,9.60
2018-11-29T04:11:40.258Z,9.60
2018-11-29T04:14:08.752Z,9.70
2018-11-29T04:16:37.216Z,9.80
2018-11-29T04:19:06.392Z,9.90
2018-11-29T04:21:34.880Z,9.90
2018-11-29T04:24:03.363Z,9.90
2018-11-29T04:26:31.844Z,9.90
2018-11-29T04:29:00.306Z,9.90
2018-11-29T04:31:28.797Z,9.90
2018-11-29T04:33:57.281Z,10.00
2018-11-29T04:36:28.041Z,10.00
2018-11-29T04:38:56.492Z,9.90
2018-11-29T04:41:24.935Z,9.90
2018-11-29T04:43:53.436Z,9.90
2018-11-29T04:46:53.992Z,9.90
2018-11-29T04:49:23.511Z,9.80
2018-11-29T04:51:52.714Z,9.80
2018-11-29T04:54:21.204Z,9.70
2018-11-29T04:56:49.718Z,9.80
2018-11-29T04:59:21.219Z,9.70
2018-11-29T05:01:49.701Z,9.70
2018-11-29T05:04:18.409Z,9.60
2018-11-29T05:06:46.883Z,9.60
2018-11-29T05:09:15.336Z,9.40
2018-11-29T05:11:44.601Z,9.40
2018-11-29T05:14:13.110Z,9.40
2018-11-29T05:16:41.563Z,9.20
2018-11-29T05:19:10.027Z,9.10
2018-11-29T05:21:38.497Z,9.00
2018-11-29T05:24:07.066Z,8.90
2018-11-29T05:26:35.556Z,8.80
2018-11-29T05:29:04.033Z,8.70
2018-11-29T05:31:32.517Z,8.60
2018-11-29T05:34:01.094Z,8.50
2018-11-29T05:36:29.583Z,8.50
2018-11-29T05:38:58.093Z,8.50
2018-11-29T05:41:26.543Z,8.50
2018-11-29T05:43:55.028Z,8.40
2018-11-29T05:46:23.514Z,8.40
2018-11-29T05:48:52.023Z,8.30
2018-11-29T05:51:20.524Z,8.20
2018-11-29T05:53:49.097Z,8.20
2018-11-29T05:56:17.569Z,8.20
2018-11-29T05:58:46.052Z,8.20
2018-11-29T06:01:21.327Z,8.20
2018-11-29T06:03:49.820Z,8.20
2018-11-29T06:06:19.655Z,8.30
2018-11-29T06:08:48.151Z,8.20
2018-11-29T06:11:16.723Z,8.20
2018-11-29T06:13:45.195Z,8.30
2018-11-29T06:16:13.679Z,8.20
2018-11-29T06:18:42.171Z,8.20
2018-11-29T06:21:10.785Z,8.10
2018-11-29T06:23:39.285Z,8.10
2018-11-29T06:26:07.765Z,8.10
2018-11-29T06:28:36.258Z,8.10
2018-11-29T06:31:04.993Z,8.00
2018-11-29T06:33:33.759Z,7.90
2018-11-29T06:36:02.225Z,7.80
2018-11-29T06:38:35.321Z,7.90
2018-11-29T06:41:03.780Z,7.80
2018-11-29T06:43:32.261Z,7.90
2018-11-29T06:46:00.806Z,7.80
2018-11-29T06:48:29.303Z,7.80
2018-11-29T06:51:02.080Z,7.80
2018-11-29T06:53:35.912Z,7.80
2018-11-29T06:56:04.440Z,7.80
2018-11-29T06:58:34.090Z,7.90
2018-11-29T07:01:02.877Z,7.90
2018-11-29T07:03:31.341Z,7.90
2018-11-29T07:06:00.116Z,7.90
2018-11-29T07:08:28.617Z,7.90
2018-11-29T07:10:57.117Z,8.00
2018-11-29T07:13:25.564Z,8.00
2018-11-29T07:15:54.399Z,8.00
2018-11-29T07:18:23.204Z,8.00
2018-11-29T07:21:03.014Z,8.00
2018-11-29T07:23:32.104Z,8.10
2018-11-29T07:26:03.797Z,8.10
2018-11-29T07:28:32.483Z,8.20
2018-11-29T07:31:17.194Z,8.20
2018-11-29T07:33:45.821Z,8.20
2018-11-29T07:36:14.595Z,8.20
2018-11-29T07:38:43.148Z,8.20
2018-11-29T07:41:12.806Z,8.20
2018-11-29T07:43:41.889Z,8.20
2018-11-29T07:46:14.803Z,8.20
2018-11-29T07:48:44.075Z,8.20
2018-11-29T07:51:14.227Z,8.20
2018-11-29T07:53:46.806Z,8.20
2018-11-29T07:56:24.198Z,8.20
2018-11-29T07:58:53.849Z,8.20
2018-11-29T08:01:22.543Z,8.30
2018-11-29T08:03:51.200Z,8.30
2018-11-29T08:06:25.945Z,8.30
2018-11-29T08:08:54.972Z,8.40
2018-11-29T08:11:31.221Z,8.40
2018-11-29T08:13:59.820Z,8.40
2018-11-29T08:16:31.873Z,8.40
2018-11-29T08:19:00.444Z,8.40
2018-11-29T08:21:33.761Z,8.40
2018-11-29T08:24:04.964Z,8.40
2018-11-29T08:26:43.366Z,8.30
2018-11-29T08:29:13.396Z,8.40
2018-11-29T08:31:42.131Z,8.30
2018-11-29T08:34:10.794Z,8.30
2018-11-29T08:36:39.988Z,8.30
2018-11-29T08:39:09.872Z,8.30
2018-11-29T08:41:41.746Z,8.20
2018-11-29T08:44:10.293Z,8.20
2018-11-29T08:46:38.790Z,8.20
2018-11-29T08:49:08.358Z,8.10
2018-11-29T08:51:37.237Z,8.10
2018-11-29T08:54:09.614Z,8.10
2018-11-29T08:56:38.292Z,8.10
2018-11-29T08:59:09.093Z,8.10
2018-11-29T09:01:45.145Z,8.10
2018-11-29T09:04:13.955Z,8.00
2018-11-29T09:06:42.502Z,8.00
2018-11-29T09:09:11.069Z,8.10
2018-11-29T09:11:39.580Z,8.00
2018-11-29T09:14:33.907Z,7.90
2018-11-29T09:20:59.953Z,7.80
2018-11-29T09:26:23.644Z,7.70
2018-11-29T09:28:55.242Z,7.60
2018-11-29T09:32:03.672Z,7.60
2018-11-29T09:34:36.014Z,7.70
2018-11-29T09:37:05.338Z,7.70
2018-11-29T09:39:35.147Z,7.60
2018-11-29T09:42:05.384Z,7.60
2018-11-29T09:44:43.395Z,7.60
2018-11-29T09:47:12.848Z,7.60
2018-11-29T09:49:52.060Z,7.60
2018-11-29T09:55:24.212Z,7.60
2018-11-29T09:57:52.659Z,7.50
2018-11-29T10:00:28.224Z,7.50
2018-11-29T10:02:59.752Z,7.60
2018-11-29T10:05:28.184Z,7.60
2018-11-29T10:07:56.706Z,7.50
2018-11-29T10:10:25.132Z,7.50
2018-11-29T10:12:53.641Z,7.50
2018-11-29T10:15:22.164Z,7.40
2018-11-29T10:17:50.619Z,8.20
2018-11-29T10:20:19.061Z,7.40
2018-11-29T10:22:47.501Z,7.50
2018-11-29T10:25:16.676Z,7.60
2018-11-29T10:27:47.076Z,7.60
2018-11-29T10:30:28.774Z,7.70
2018-11-29T10:32:57.342Z,7.70
2018-11-29T10:35:25.798Z,7.80
2018-11-29T10:37:54.252Z,7.80
2018-11-29T10:40:22.789Z,7.80
2018-11-29T10:42:51.457Z,7.90
2018-11-29T10:45:20.736Z,7.90
2018-11-29T10:47:52.582Z,7.90
2018-11-29T10:50:19.273Z,7.90
2018-11-29T10:52:47.704Z,7.90
2018-11-29T10:55:17.239Z,7.90
2018-11-29T10:57:45.724Z,7.90
2018-11-29T11:00:27.488Z,8.00
2018-11-29T11:03:07.564Z,8.00
2018-11-29T11:05:36.888Z,8.00
2018-11-29T11:08:08.596Z,8.10
2018-11-29T11:10:36.557Z,7.90
2018-11-29T11:13:05.950Z,7.90
2018-11-29T11:15:34.435Z,7.90
2018-11-29T11:18:02.935Z,7.90
2018-11-29T11:20:31.398Z,8.00
2018-11-29T11:22:59.839Z,8.10
2018-11-29T11:25:28.319Z,8.10
2018-11-29T11:27:56.781Z,8.20
2018-11-29T11:30:25.284Z,8.40
2018-11-29T11:32:53.724Z,8.70
2018-11-29T11:35:22.172Z,9.10
2018-11-29T11:37:50.668Z,9.20
2018-11-29T11:40:19.136Z,9.40
2018-11-29T11:42:47.849Z,9.40
2018-11-29T11:45:17.440Z,9.50
2018-11-29T11:47:46.052Z,9.60
2018-11-29T11:50:22.459Z,9.60
2018-11-29T11:52:51.485Z,9.80
2018-11-29T11:55:19.971Z,10.00
2018-11-29T11:57:48.851Z,9.90
2018-11-29T12:00:20.237Z,10.00
2018-11-29T12:02:51.124Z,10.40
2018-11-29T12:05:19.580Z,10.50
2018-11-29T12:07:48.024Z,10.60
2018-11-29T12:10:16.678Z,10.60
2018-11-29T12:12:45.138Z,10.80
2018-11-29T12:15:15.360Z,10.80
2018-11-29T12:17:45.053Z,10.90
2018-11-29T12:20:17.507Z,11.00
2018-11-29T12:22:46.000Z,11.10
2018-11-29T12:25:16.827Z,11.20
2018-11-29T12:27:45.260Z,11.20
2018-11-29T12:30:20.032Z,11.20
2018-11-29T12:32:48.498Z,11.20
2018-11-29T12:35:16.959Z,11.00
2018-11-29T12:37:45.401Z,11.00
2018-11-29T12:40:15.772Z,11.10
2018-11-29T12:42:44.227Z,11.20
2018-11-29T12:45:13.787Z,11.30
2018-11-29T12:47:42.847Z,11.20
2018-11-29T12:50:13.834Z,11.00
2018-11-29T12:52:42.870Z,11.00
2018-11-29T12:55:12.200Z,11.00
2018-11-29T12:57:42.162Z,10.90
2018-11-29T13:00:11.123Z,10.90
2018-11-29T13:02:40.821Z,11.00
2018-11-29T13:05:08.969Z,10.80
2018-11-29T13:07:37.450Z,10.80
2018-11-29T13:10:06.851Z,10.90
2018-11-29T13:12:35.321Z,11.00
2018-11-29T13:15:04.361Z,11.00
2018-11-29T13:17:32.791Z,10.90
2018-11-29T13:20:01.231Z,10.80
2018-11-29T13:22:29.684Z,10.70
2018-11-29T13:24:58.143Z,10.70
2018-11-29T13:27:26.592Z,10.60
2018-11-29T13:29:55.065Z,10.50
2018-11-29T13:32:23.551Z,10.50
2018-11-29T13:34:52.017Z,10.50
2018-11-29T13:37:20.481Z,10.50
2018-11-29T13:39:48.947Z,10.50
2018-11-29T13:42:17.395Z,10.50
2018-11-29T13:44:45.877Z,10.40
2018-11-29T13:47:14.359Z,10.40
2018-11-29T13:49:43.597Z,10.50
2018-11-29T13:52:12.062Z,10.50
2018-11-29T13:54:40.501Z,10.40
2018-11-29T13:57:08.985Z,10.30
2018-11-29T13:59:37.432Z,10.30
2018-11-29T14:02:06.152Z,10.50
2018-11-29T14:04:34.620Z,10.50
2018-11-29T14:07:03.076Z,10.70
2018-11-29T14:09:31.511Z,11.00
2018-11-29T14:12:00.028Z,11.00
2018-11-29T14:14:28.433Z,11.00
2018-11-29T14:16:56.896Z,10.90
2018-11-29T14:19:25.384Z,10.80
2018-11-29T14:21:53.845Z,10.90
2018-11-29T14:24:22.317Z,10.90
2018-11-29T14:26:50.772Z,11.00
2018-11-29T14:29:19.229Z,11.10
2018-11-29T14:31:47.667Z,11.10
2018-11-29T14:34:16.176Z,11.00
2018-11-29T14:36:44.683Z,10.90
2018-11-29T14:39:13.115Z,10.90
2018-11-29T14:41:41.568Z,10.80
2018-11-29T14:44:10.001Z,10.80
2018-11-29T14:46:38.472Z,10.80
2018-11-29T14:49:06.989Z,10.70
2018-11-29T14:51:35.532Z,10.60
2018-11-29T14:54:04.000Z,10.70
2018-11-29T14:56:32.444Z,10.70
2018-11-29T14:59:00.977Z,10.70
2018-11-29T15:01:29.452Z,10.60
2018-11-29T15:03:57.908Z,10.50
2018-11-29T15:06:26.371Z,10.30
2018-11-29T15:08:54.805Z,10.30
2018-11-29T15:11:29.152Z,10.50
2018-11-29T15:13:51.865Z,10.50
2018-11-29T15:16:20.382Z,10.50
2018-11-29T15:18:48.838Z,10.40
2018-11-29T15:21:17.330Z,10.40
2018-11-29T15:23:46.815Z,10.20
2018-11-29T15:26:15.259Z,10.10
2018-11-29T15:28:43.728Z,10.00
2018-11-29T15:31:12.199Z,9.80
2018-11-29T15:33:40.704Z,9.90
2018-11-29T15:36:09.243Z,9.80
2018-11-29T15:38:37.671Z,9.80
2018-11-29T15:41:06.203Z,10.00
2018-11-29T15:43:34.640Z,10.00
2018-11-29T15:46:03.131Z,10.20
2018-11-29T15:48:32.235Z,10.10
2018-11-29T15:51:00.727Z,10.10
2018-11-29T15:53:29.173Z,10.20
2018-11-29T15:55:57.641Z,10.20
2018-11-29T15:58:26.090Z,10.20
2018-11-29T16:00:54.573Z,10.10
2018-11-29T16:03:23.031Z,10.20
2018-11-29T16:05:51.462Z,10.20
2018-11-29T16:08:20.925Z,10.30
2018-11-29T16:10:49.749Z,10.30
2018-11-29T16:13:18.891Z,10.20
2018-11-29T16:15:47.464Z,10.30
2018-11-29T16:18:16.177Z,10.20
2018-11-29T16:20:44.929Z,10.30
2018-11-29T16:23:13.399Z,10.30
2018-11-29T16:25:41.974Z,10.30
2018-11-29T16:28:10.653Z,10.30
2018-11-29T16:30:49.527Z,10.20
2018-11-29T16:33:24.694Z,10.30
2018-11-29T16:35:53.141Z,10.30
2018-11-29T16:38:21.575Z,10.30
2018-11-29T16:40:50.068Z,10.30
2018-11-29T16:43:18.508Z,10.20
2018-11-29T16:45:46.929Z,10.20
2018-11-29T16:48:16.833Z,10.10
2018-11-29T16:50:45.263Z,10.00
2018-11-29T16:53:13.688Z,10.00
2018-11-29T16:55:42.177Z,10.00
2018-11-29T16:58:14.291Z,10.00
2018-11-29T17:00:42.723Z,9.90
2018-11-29T17:03:11.181Z,9.80
2018-11-29T17:05:39.621Z,9.80
2018-11-29T17:08:08.206Z,9.80
2018-11-29T17:10:36.787Z,9.90
2018-11-29T17:13:07.799Z,9.90
2018-11-29T17:15:36.240Z,10.00
2018-11-29T17:18:04.935Z,10.00
2018-11-29T17:20:33.451Z,10.00
2018-11-29T17:23:02.849Z,10.00
2018-11-29T17:25:31.409Z,10.10
2018-11-29T17:28:00.001Z,10.10
2018-11-29T17:30:28.611Z,10.10
2018-11-29T17:32:58.136Z,10.20
2018-11-29T17:35:26.743Z,10.20
2018-11-29T17:37:56.464Z,10.20
2018-11-29T17:40:24.937Z,10.20
2018-11-29T17:42:54.080Z,10.10
2018-11-29T17:45:24.748Z,10.20
2018-11-29T17:47:54.523Z,10.20
2018-11-29T17:50:25.499Z,10.20
2018-11-29T17:52:53.967Z,10.20
2018-11-29T17:55:22.444Z,10.20
2018-11-29T17:57:50.956Z,10.20
2018-11-29T18:00:21.528Z,10.20
2018-11-29T18:02:49.941Z,10.20
2018-11-29T18:05:18.483Z,10.30
2018-11-29T18:07:46.907Z,10.40
2018-11-29T18:10:17.652Z,10.30
2018-11-29T18:12:48.480Z,10.20
2018-11-29T18:15:20.813Z,10.20
2018-11-29T18:17:49.246Z,10.20
2018-11-29T18:20:17.769Z,10.30
2018-11-29T18:22:46.912Z,10.30
2018-11-29T18:25:16.727Z,10.40
2018-11-29T18:27:47.573Z,10.30
2018-11-29T18:30:18.618Z,10.30
2018-11-29T18:32:47.064Z,10.40
2018-11-29T18:35:16.615Z,10.30
2018-11-29T18:37:45.305Z,10.30
2018-11-29T18:40:17.723Z,10.30
2018-11-29T18:42:47.460Z,10.20
2018-11-29T18:45:17.716Z,10.10
2018-11-29T18:47:48.309Z,10.00
2018-11-29T18:50:20.287Z,10.00
2018-11-29T18:52:48.860Z,10.20
2018-11-29T18:55:17.772Z,10.30
2018-11-29T18:57:46.260Z,10.30
2018-11-29T19:00:18.063Z,10.40
2018-11-29T19:02:46.482Z,10.40
2018-11-29T19:05:14.961Z,10.40
2018-11-29T19:07:43.881Z,10.50
2018-11-29T19:10:15.891Z,10.50
2018-11-29T19:13:15.536Z,10.50
2018-11-29T19:15:43.974Z,10.50
2018-11-29T19:18:12.415Z,10.60
2018-11-29T19:20:40.895Z,10.60
2018-11-29T19:23:09.294Z,10.50
2018-11-29T19:25:37.793Z,10.50
2018-11-29T19:28:07.186Z,10.40
2018-11-29T19:30:36.235Z,10.50
2018-11-29T19:33:17.092Z,10.50
2018-11-29T19:35:41.492Z,10.60
2018-11-29T19:38:09.965Z,10.60
2018-11-29T19:40:38.408Z,10.60
2018-11-29T19:43:07.816Z,10.60
2018-11-29T19:45:36.312Z,10.70
2018-11-29T19:48:06.594Z,10.60
2018-11-29T19:50:35.065Z,10.60
2018-11-29T19:53:05.940Z,10.50
2018-11-29T19:55:34.929Z,10.50
2018-11-29T19:58:03.368Z,10.50
2018-11-29T20:00:31.845Z,10.40
2018-11-29T20:03:00.285Z,10.40
2018-11-29T20:05:28.733Z,10.50
2018-11-29T20:07:57.176Z,10.40
2018-11-29T20:10:25.586Z,10.40
2018-11-29T20:13:00.840Z,10.40
2018-11-29T20:15:29.349Z,10.60
2018-11-29T20:17:57.920Z,10.50
2018-11-29T20:20:26.358Z,10.60
2018-11-29T20:22:54.873Z,10.40
2018-11-29T20:25:25.171Z,10.40
2018-11-29T20:27:54.116Z,10.40
2018-11-29T20:30:23.786Z,10.40
2018-11-29T20:32:54.193Z,10.30
2018-11-29T20:35:23.089Z,10.40
2018-11-29T20:37:52.452Z,10.40
2018-11-29T20:40:23.301Z,10.40
2018-11-29T20:42:52.776Z,10.40
2018-11-29T20:45:28.637Z,10.50
2018-11-29T20:47:57.112Z,10.40
2018-11-29T20:50:27.080Z,10.40
2018-11-29T20:52:57.091Z,10.40
2018-11-29T20:55:29.831Z,10.30
2018-11-29T20:57:58.463Z,10.40
2018-11-29T21:00:26.920Z,10.30
2018-11-29T21:02:55.644Z,10.30
2018-11-29T21:05:25.095Z,10.30
2018-11-29T21:07:56.849Z,10.40
2018-11-29T21:10:26.219Z,10.40
2018-11-29T21:12:54.855Z,10.50
2018-11-29T21:15:23.299Z,10.40
2018-11-29T21:17:51.979Z,10.50
2018-11-29T21:20:21.878Z,10.50
2018-11-29T21:22:51.247Z,10.50
2018-11-29T21:25:22.887Z,10.70
2018-11-29T21:27:51.358Z,10.70
2018-11-29T21:30:19.825Z,10.70
2018-11-29T21:32:48.741Z,10.60
2018-11-29T21:35:19.495Z,10.70
2018-11-29T21:37:47.944Z,10.70
2018-11-29T21:40:34.119Z,10.60
2018-11-29T21:43:02.547Z,10.70
2018-11-29T21:45:30.960Z,10.70
2018-11-29T21:47:59.388Z,10.60
2018-11-29T21:50:27.803Z,10.60
2018-11-29T21:52:56.907Z,10.60
2018-11-29T21:55:25.348Z,10.60
2018-11-29T21:57:53.802Z,10.60
2018-11-29T22:00:23.004Z,10.70
2018-11-29T22:02:53.122Z,10.70
2018-11-29T22:05:21.663Z,10.80
2018-11-29T22:07:50.100Z,10.80
2018-11-29T22:10:19.015Z,10.80
2018-11-29T22:12:47.475Z,10.80
2018-11-29T22:15:16.407Z,10.80
2018-11-29T22:18:01.521Z,10.70
2018-11-29T22:20:25.156Z,10.70
2018-11-29T22:22:53.671Z,10.70
2018-11-29T22:25:22.114Z,10.70
2018-11-29T22:27:51.811Z,10.70
2018-11-29T22:30:20.271Z,10.70
2018-11-29T22:32:48.831Z,10.70
2018-11-29T22:35:17.273Z,10.60
2018-11-29T22:37:45.734Z,10.50
2018-11-29T22:40:14.159Z,10.60
2018-11-29T22:42:42.668Z,10.50
2018-11-29T22:45:11.148Z,10.60
2018-11-29T22:47:39.597Z,10.60
2018-11-29T22:50:08.515Z,10.60
2018-11-29T22:52:37.628Z,10.60
2018-11-29T22:55:06.577Z,10.60
2018-11-29T22:57:34.987Z,10.60
2018-11-29T23:00:03.558Z,10.70
2018-11-29T23:02:32.009Z,10.60
2018-11-29T23:05:00.440Z,10.60
2018-11-29T23:07:28.887Z,10.60
2018-11-29T23:09:57.339Z,10.70
2018-11-29T23:12:25.760Z,10.70
2018-11-29T23:14:54.460Z,10.60
2018-11-29T23:17:22.877Z,10.70
2018-11-29T23:19:51.312Z,10.70
2018-11-29T23:22:19.792Z,10.70
2018-11-29T23:24:48.259Z,10.70
2018-11-29T23:27:16.740Z,10.60
2018-11-29T23:29:45.192Z,10.70
2018-11-29T23:32:13.660Z,10.70
2018-11-29T23:34:42.128Z,10.60
2018-11-29T23:37:10.625Z,10.60
2018-11-29T23:39:39.180Z,10.60
2018-11-29T23:42:08.536Z,10.60
2018-11-29T23:44:36.989Z,10.70
2018-11-29T23:47:06.572Z,10.70
2018-11-29T23:49:35.022Z,10.70
2018-11-29T23:52:03.532Z,10.70
2018-11-29T23:54:32.049Z,10.70
2018-11-29T23:57:00.485Z,10.70
2018-11-29T23:59:28.971Z,10.60
